Time;durP1;ratioP1;P1;durP2;ratioP2;P2;SDS_P1;SDS_P2;PMS_P1;PMS_P2;Temp;Humidity;BMP_temperature;BMP_pressure;BME280_temperature;BME280_humidity;BME280_pressure;Samples;Min_cycle;Max_cycle;Signal;HPM_P1;HPM_P2
2023/08/29 00:00:56;;;;;;;;;;;;;;;13.59;97.23;101212.00;5015831;28;19913;-61
2023/08/29 00:03:21;;;;;;;;;;;;;;;13.57;97.20;101211.97;5008923;28;19972;-61
2023/08/29 00:05:47;;;;;;;;;;;;;;;13.56;97.12;101211.09;5012380;28;20615;-61
2023/08/29 00:08:12;;;;;;;;;;;;;;;13.54;97.24;101206.66;5021566;28;19921;-61
2023/08/29 00:10:37;;;;;;;;;;;;;;;13.53;97.35;101207.53;5017845;28;19909;-61
2023/08/29 00:13:03;;;;;;;;;;;;;;;13.51;97.07;101207.53;5019236;28;20259;-61
2023/08/29 00:15:28;;;;;;;;;;;;;;;13.49;97.27;101201.34;5015050;28;19905;-61
2023/08/29 00:17:53;;;;;;;;;;;;;;;13.46;97.21;101203.94;5017426;28;19912;-61
2023/08/29 00:20:18;;;;;;;;;;;;;;;13.43;97.42;101200.38;5012923;28;19912;-61
2023/08/29 00:22:43;;;;;;;;;;;;;;;13.41;97.34;101196.84;5027328;28;20140;-61
2023/08/29 00:25:09;;;;;;;;;;;;;;;13.38;97.32;101192.44;5023059;28;19925;-61
2023/08/29 00:27:34;;;;;;;;;;;;;;;13.32;97.34;101187.94;5012282;28;19913;-61
2023/08/29 00:29:59;;;;;;;;;;;;;;;13.25;97.15;101182.56;5022994;28;20195;-61
2023/08/29 00:32:24;;;;;;;;;;;;;;;13.16;97.43;101178.91;5021888;28;19913;-61
2023/08/29 00:34:49;;;;;;;;;;;;;;;13.11;97.55;101184.94;5021594;28;19905;-61
2023/08/29 00:37:15;;;;;;;;;;;;;;;13.05;97.82;101181.34;5023040;28;19905;-61
2023/08/29 00:39:40;;;;;;;;;;;;;;;13.05;98.01;101180.47;5013589;28;19898;-61
2023/08/29 00:42:05;;;;;;;;;;;;;;;13.07;97.98;101185.75;5025242;28;19941;-61
2023/08/29 00:44:30;;;;;;;;;;;;;;;13.07;97.89;101183.13;5023626;28;19920;-61
2023/08/29 00:46:56;;;;;;;;;;;;;;;13.09;98.09;101178.78;5026907;28;19914;-61
2023/08/29 00:49:26;;;;;;;;;;;;;;;13.10;98.02;101181.44;5021546;28;20112;-61
2023/08/29 00:51:51;;;;;;;;;;;;;;;12.97;98.04;101179.44;5033497;28;20003;-61
2023/08/29 00:54:17;;;;;;;;;;;;;;;12.90;98.70;101175.81;5029913;28;20036;-61
2023/08/29 00:56:43;;;;;;;;;;;;;;;12.91;98.89;101185.44;5021702;28;19914;-61
2023/08/29 00:59:08;;;;;;;;;;;;;;;12.94;98.98;101190.72;5022049;28;19917;-61
2023/08/29 01:01:34;;;;;;;;;;;;;;;12.93;98.89;101185.47;5024918;28;19901;-61
2023/08/29 01:04:00;;;;;;;;;;;;;;;12.92;98.83;101183.69;5026124;28;19996;-61
2023/08/29 01:06:25;;;;;;;;;;;;;;;12.93;98.87;101183.72;5023789;28;20127;-61
2023/08/29 01:08:51;;;;;;;;;;;;;;;12.91;98.54;101180.22;5023489;28;19917;-61
2023/08/29 01:11:23;;;;;;;;;;;;;;;12.88;98.70;101175.78;5013913;28;19905;-61
2023/08/29 01:14:01;;;;;;;;;;;;;;;12.85;98.85;101167.03;5017898;28;20059;-61
2023/08/29 01:16:30;;;;;;;;;;;;;;;12.81;98.82;101173.91;5013420;28;19909;-61
2023/08/29 01:18:56;;;;;;;;;;;;;;;12.79;98.93;101172.09;5017605;28;19976;-61
2023/08/29 01:21:39;;;;;;;;;;;;;;;12.76;98.92;101179.91;5013155;28;19964;-61
2023/08/29 01:24:07;;;;;;;;;;;;;;;12.77;99.00;101173.81;5015823;28;19916;-61
2023/08/29 01:26:33;;;;;;;;;;;;;;;12.75;99.04;101170.31;5024752;28;19905;-61
2023/08/29 01:29:00;;;;;;;;;;;;;;;12.74;99.13;101179.88;5026200;28;19917;-61
2023/08/29 01:31:29;;;;;;;;;;;;;;;12.74;99.16;101184.22;5024484;28;19944;-61
2023/08/29 01:33:55;;;;;;;;;;;;;;;12.73;98.88;101192.91;5022539;28;19905;-61
2023/08/29 01:36:21;;;;;;;;;;;;;;;12.68;98.98;101183.22;5024788;28;19906;-61
2023/08/29 01:38:47;;;;;;;;;;;;;;;12.65;98.83;101180.56;5025707;28;19965;-61
2023/08/29 01:41:12;;;;;;;;;;;;;;;12.63;98.85;101179.66;5019538;28;19952;-61
2023/08/29 01:43:37;;;;;;;;;;;;;;;12.63;99.03;101178.75;5022098;28;19937;-60
2023/08/29 01:46:02;;;;;;;;;;;;;;;12.64;99.08;101184.06;5014120;28;19951;-61
2023/08/29 01:48:27;;;;;;;;;;;;;;;12.62;98.98;101184.88;5024106;28;19957;-61
2023/08/29 01:50:53;;;;;;;;;;;;;;;12.61;98.87;101193.53;5021292;28;19909;-61
2023/08/29 01:53:18;;;;;;;;;;;;;;;12.57;99.08;101187.38;5016505;28;19910;-60
2023/08/29 01:55:44;;;;;;;;;;;;;;;12.58;99.15;101185.66;5020482;28;19898;-60
2023/08/29 01:58:09;;;;;;;;;;;;;;;12.58;99.16;101189.13;5020853;28;19980;-60
2023/08/29 02:00:35;;;;;;;;;;;;;;;12.57;99.21;101192.63;5022489;28;19943;-60
2023/08/29 02:03:00;;;;;;;;;;;;;;;12.57;99.09;101196.94;5018527;28;19905;-60
2023/08/29 02:05:25;;;;;;;;;;;;;;;12.56;99.14;101193.47;5023349;28;19968;-60
2023/08/29 02:07:50;;;;;;;;;;;;;;;12.56;99.18;101190.84;5022776;28;20202;-60
2023/08/29 02:10:16;;;;;;;;;;;;;;;12.58;99.12;101194.34;5024982;28;19980;-60
2023/08/29 02:12:41;;;;;;;;;;;;;;;12.55;99.17;101198.66;5026982;28;20047;-60
2023/08/29 02:15:07;;;;;;;;;;;;;;;12.57;98.94;101202.16;5022132;28;19909;-60
2023/08/29 02:17:33;;;;;;;;;;;;;;;12.55;98.93;101196.91;5027641;28;20040;-60
2023/08/29 02:19:58;;;;;;;;;;;;;;;12.53;99.05;101196.88;5022932;28;19917;-60
2023/08/29 02:22:23;;;;;;;;;;;;;;;12.53;98.94;101206.47;5017027;28;19916;-60
2023/08/29 02:24:49;;;;;;;;;;;;;;;12.50;98.99;101211.63;5014421;28;20114;-60
2023/08/29 02:27:14;;;;;;;;;;;;;;;12.48;99.09;101208.09;5016813;28;19909;-60
2023/08/29 02:29:39;;;;;;;;;;;;;;;12.45;99.00;101208.88;5024335;28;19905;-60
2023/08/29 02:32:04;;;;;;;;;;;;;;;12.41;98.91;101211.41;5025326;28;19905;-60
2023/08/29 02:34:29;;;;;;;;;;;;;;;12.35;98.96;101210.44;5023357;28;20190;-60
2023/08/29 02:36:55;;;;;;;;;;;;;;;12.32;99.05;101222.53;5022541;28;19905;-60
2023/08/29 02:39:20;;;;;;;;;;;;;;;12.31;99.11;101229.50;5017755;28;19906;-60
2023/08/29 02:41:45;;;;;;;;;;;;;;;12.24;98.94;101235.44;5013231;28;19913;-60
2023/08/29 02:44:10;;;;;;;;;;;;;;;12.05;99.20;101241.06;5021956;28;19905;-60
2023/08/29 02:46:35;;;;;;;;;;;;;;;11.93;99.81;101239.91;5023139;28;19901;-60
2023/08/29 02:49:01;;;;;;;;;;;;;;;11.88;100.00;101236.28;5015717;28;19977;-60
2023/08/29 02:51:26;;;;;;;;;;;;;;;11.90;100.00;101239.81;5032010;28;19916;-60
2023/08/29 02:53:51;;;;;;;;;;;;;;;11.92;100.00;101240.75;5015855;28;19906;-60
2023/08/29 02:56:16;;;;;;;;;;;;;;;11.96;100.00;101229.56;5023564;28;19913;-60
2023/08/29 02:58:42;;;;;;;;;;;;;;;11.98;100.00;101235.69;5022285;28;19901;-60
2023/08/29 03:01:11;;;;;;;;;;;;;;;12.00;100.00;101233.13;5024397;28;19913;-60
2023/08/29 03:03:36;;;;;;;;;;;;;;;12.01;100.00;101237.50;5022427;28;19979;-60
2023/08/29 03:06:01;;;;;;;;;;;;;;;11.98;99.97;101234.84;5014381;28;20170;-60
2023/08/29 03:08:26;;;;;;;;;;;;;;;11.88;100.00;101246.75;5023405;28;19910;-60
2023/08/29 03:10:52;;;;;;;;;;;;;;;11.80;100.00;101240.44;5021901;28;19917;-60
2023/08/29 03:13:18;;;;;;;;;;;;;;;11.68;100.00;101240.16;5017145;28;19902;-60
2023/08/29 03:15:44;;;;;;;;;;;;;;;11.56;100.00;101232.88;5021892;28;19909;-60
2023/08/29 03:18:09;;;;;;;;;;;;;;;11.55;100.00;101239.81;5024405;28;19906;-60
2023/08/29 03:20:34;;;;;;;;;;;;;;;11.60;100.00;101235.63;5018285;28;19944;-60
2023/08/29 03:22:59;;;;;;;;;;;;;;;11.64;100.00;101234.84;5019362;28;19910;-60
2023/08/29 03:25:25;;;;;;;;;;;;;;;11.66;100.00;101240.09;5018901;28;20008;-60
2023/08/29 03:27:50;;;;;;;;;;;;;;;11.69;100.00;101241.88;5022204;28;19909;-60
2023/08/29 03:30:15;;;;;;;;;;;;;;;11.71;100.00;101235.88;5010905;28;20044;-60
2023/08/29 03:32:40;;;;;;;;;;;;;;;11.74;100.00;101232.47;5020843;28;19909;-60
2023/08/29 03:35:06;;;;;;;;;;;;;;;11.75;100.00;101229.88;5015623;28;19905;-60
2023/08/29 03:37:31;;;;;;;;;;;;;;;11.76;100.00;101221.22;5020818;28;19901;-60
2023/08/29 03:39:56;;;;;;;;;;;;;;;11.78;100.00;101218.66;5016992;28;19906;-60
2023/08/29 03:42:21;;;;;;;;;;;;;;;11.77;100.00;101206.44;5016627;28;19947;-60
2023/08/29 03:44:47;;;;;;;;;;;;;;;11.77;100.00;101207.28;5023106;28;19906;-60
2023/08/29 03:47:12;;;;;;;;;;;;;;;11.77;100.00;101206.44;5015010;28;19906;-60
2023/08/29 03:49:37;;;;;;;;;;;;;;;11.70;100.00;101199.28;5018277;28;20077;-60
2023/08/29 03:52:03;;;;;;;;;;;;;;;11.70;100.00;101191.47;5030218;28;19913;-60
2023/08/29 03:54:28;;;;;;;;;;;;;;;11.70;100.00;101192.31;5028523;28;19906;-60
2023/08/29 03:56:54;;;;;;;;;;;;;;;11.71;100.00;101186.28;5023439;28;19964;-60
2023/08/29 03:59:19;;;;;;;;;;;;;;;11.71;100.00;101186.28;5024495;28;19894;-60
2023/08/29 04:01:44;;;;;;;;;;;;;;;11.69;100.00;101187.97;5023328;28;20163;-60
2023/08/29 04:04:09;;;;;;;;;;;;;;;11.63;100.00;101191.31;5023597;28;20000;-60
2023/08/29 04:06:35;;;;;;;;;;;;;;;11.57;100.00;101185.94;5024243;28;19933;-60
2023/08/29 04:09:00;;;;;;;;;;;;;;;11.54;100.00;101191.06;5024856;28;19906;-60
2023/08/29 04:11:25;;;;;;;;;;;;;;;11.50;100.00;101191.84;5023562;28;19964;-60
2023/08/29 04:13:51;;;;;;;;;;;;;;;11.46;100.00;101175.22;5024453;28;19902;-60
2023/08/29 04:16:16;;;;;;;;;;;;;;;11.42;100.00;101186.41;5024181;28;19901;-60
2023/08/29 04:18:41;;;;;;;;;;;;;;;11.36;100.00;101172.34;5024487;28;19902;-60
2023/08/29 04:21:07;;;;;;;;;;;;;;;11.31;100.00;101175.72;5022725;28;20146;-60
2023/08/29 04:23:32;;;;;;;;;;;;;;;11.28;100.00;101169.53;5024129;28;19920;-60
2023/08/29 04:25:59;;;;;;;;;;;;;;;11.27;100.00;101178.22;5030015;28;20182;-60
2023/08/29 04:28:24;;;;;;;;;;;;;;;11.25;100.00;101175.56;5026025;28;19916;-60
2023/08/29 04:30:49;;;;;;;;;;;;;;;11.25;100.00;101174.66;5022650;28;19905;-60
2023/08/29 04:33:14;;;;;;;;;;;;;;;11.20;100.00;101171.06;5020347;28;19905;-60
2023/08/29 04:35:40;;;;;;;;;;;;;;;11.14;100.00;101171.78;5018884;28;19906;-60
2023/08/29 04:38:05;;;;;;;;;;;;;;;11.13;100.00;101175.25;5009746;28;19913;-60
2023/08/29 04:40:30;;;;;;;;;;;;;;;11.15;100.00;101178.75;5014320;28;19897;-60
2023/08/29 04:42:55;;;;;;;;;;;;;;;11.18;100.00;101173.66;5020456;28;19909;-60
2023/08/29 04:45:20;;;;;;;;;;;;;;;11.17;100.00;101166.66;5020295;28;19956;-60
2023/08/29 04:47:46;;;;;;;;;;;;;;;11.15;100.00;101165.72;5021653;28;19917;-60
2023/08/29 04:50:11;;;;;;;;;;;;;;;11.12;100.00;101169.16;5018195;28;20178;-60
2023/08/29 04:52:36;;;;;;;;;;;;;;;11.10;100.00;101164.72;5019442;28;19933;-60
2023/08/29 04:55:04;;;;;;;;;;;;;;;11.06;100.00;101168.09;5020774;28;19933;-60
2023/08/29 04:57:30;;;;;;;;;;;;;;;11.08;100.00;101166.41;5010646;28;19909;-60
2023/08/29 04:59:55;;;;;;;;;;;;;;;11.09;100.00;101169.06;5014665;28;19959;-60
2023/08/29 05:02:21;;;;;;;;;;;;;;;11.08;100.00;101171.59;5018651;28;20059;-60
2023/08/29 05:04:47;;;;;;;;;;;;;;;11.09;100.00;101170.78;5020873;28;19913;-60
2023/08/29 05:07:12;;;;;;;;;;;;;;;11.10;100.00;101175.16;5016965;28;19905;-60
2023/08/29 05:09:37;;;;;;;;;;;;;;;11.11;100.00;101169.97;5041228;28;19909;-60
2023/08/29 05:12:03;;;;;;;;;;;;;;;11.14;100.00;101166.59;5017162;28;19906;-60
2023/08/29 05:14:28;;;;;;;;;;;;;;;11.18;100.00;101173.66;5023314;28;20147;-60
2023/08/29 05:16:53;;;;;;;;;;;;;;;11.22;100.00;101172.84;5017374;28;19961;-60
2023/08/29 05:19:19;;;;;;;;;;;;;;;11.26;100.00;101177.31;5025067;28;20135;-60
2023/08/29 05:21:44;;;;;;;;;;;;;;;11.29;100.00;101166.97;5017502;28;19918;-60
2023/08/29 05:24:09;;;;;;;;;;;;;;;11.34;100.00;101163.59;5016194;28;20063;-60
2023/08/29 05:26:34;;;;;;;;;;;;;;;11.37;100.00;101155.84;5019059;28;19944;-60
2023/08/29 05:29:00;;;;;;;;;;;;;;;11.41;100.00;101157.69;5020157;28;19917;-60
2023/08/29 05:31:25;;;;;;;;;;;;;;;11.44;100.00;101163.88;5014385;28;20147;-60
2023/08/29 05:33:50;;;;;;;;;;;;;;;11.47;100.00;101176.09;5016688;28;19952;-60
2023/08/29 05:36:16;;;;;;;;;;;;;;;11.47;100.00;101170.88;5016687;28;20141;-60
2023/08/29 05:38:41;;;;;;;;;;;;;;;11.49;100.00;101177.91;5020473;28;19912;-60
2023/08/29 05:41:06;;;;;;;;;;;;;;;11.51;100.00;101170.13;5018912;28;20150;-60
2023/08/29 05:43:31;;;;;;;;;;;;;;;11.54;100.00;101175.41;5020669;28;19912;-60
2023/08/29 05:45:57;;;;;;;;;;;;;;;11.57;100.00;101178.13;5016961;28;19944;-60
2023/08/29 05:48:22;;;;;;;;;;;;;;;11.60;100.00;101175.59;5018752;28;19909;-60
2023/08/29 05:50:49;;;;;;;;;;;;;;;11.63;100.00;101167.81;5029587;28;19909;-60
2023/08/29 05:53:14;;;;;;;;;;;;;;;11.65;100.00;101176.56;5027840;28;19909;-60
2023/08/29 05:55:39;;;;;;;;;;;;;;;11.64;100.00;101176.53;5025195;28;19941;-60
2023/08/29 05:58:04;;;;;;;;;;;;;;;11.66;100.00;101178.34;5026686;28;20111;-60
2023/08/29 06:00:30;;;;;;;;;;;;;;;11.70;100.00;101174.06;5026787;28;20163;-60
2023/08/29 06:02:55;;;;;;;;;;;;;;;11.74;100.00;101185.47;5026754;28;19912;-60
2023/08/29 06:05:20;;;;;;;;;;;;;;;11.75;100.00;101182.91;5025380;28;20238;-60
2023/08/29 06:07:46;;;;;;;;;;;;;;;11.77;100.00;101180.31;5025933;28;19902;-60
2023/08/29 06:10:11;;;;;;;;;;;;;;;11.80;100.00;101177.78;5026121;28;20055;-60
2023/08/29 06:12:37;;;;;;;;;;;;;;;11.83;100.00;101180.47;5018526;28;19952;-60
2023/08/29 06:15:02;;;;;;;;;;;;;;;11.90;100.00;101187.59;5023878;28;20221;-60
2023/08/29 06:17:27;;;;;;;;;;;;;;;11.94;100.00;101184.25;5016865;28;19905;-60
2023/08/29 06:19:52;;;;;;;;;;;;;;;11.99;100.00;101187.84;5023606;28;20128;-60
2023/08/29 06:22:17;;;;;;;;;;;;;;;12.05;100.00;101188.84;5019749;28;19905;-60
2023/08/29 06:24:43;;;;;;;;;;;;;;;12.08;100.00;101183.69;5020451;28;19968;-60
2023/08/29 06:27:08;;;;;;;;;;;;;;;12.12;100.00;101175.97;5016092;28;19921;-60
2023/08/29 06:29:33;;;;;;;;;;;;;;;12.16;100.00;101177.78;5027533;28;19977;-60
2023/08/29 06:32:00;;;;;;;;;;;;;;;12.22;100.00;101177.03;5018367;28;21213;-60
2023/08/29 06:34:25;;;;;;;;;;;;;;;12.28;100.00;101174.56;5025263;28;19906;-60
2023/08/29 06:36:50;;;;;;;;;;;;;;;12.33;100.00;101180.75;5020439;28;19967;-60
2023/08/29 06:39:16;;;;;;;;;;;;;;;12.38;100.00;101166.91;5022732;28;20135;-60
2023/08/29 06:41:41;;;;;;;;;;;;;;;12.41;100.00;101164.38;5017173;28;19940;-60
2023/08/29 06:44:07;;;;;;;;;;;;;;;12.46;100.00;101161.00;5015457;28;19913;-60
2023/08/29 06:46:32;;;;;;;;;;;;;;;12.49;100.00;101154.97;5023688;28;19914;-60
2023/08/29 06:48:57;;;;;;;;;;;;;;;12.54;100.00;101161.16;5032255;28;19976;-60
2023/08/29 06:51:24;;;;;;;;;;;;;;;12.60;100.00;101166.53;5025393;28;20198;-60
2023/08/29 06:53:49;;;;;;;;;;;;;;;12.67;100.00;101163.19;5023058;28;19980;-61
2023/08/29 06:56:14;;;;;;;;;;;;;;;12.74;100.00;101160.69;5019751;28;19905;-60
2023/08/29 06:58:39;;;;;;;;;;;;;;;12.79;100.00;101157.31;5022540;28;19941;-60
2023/08/29 07:01:04;;;;;;;;;;;;;;;12.85;100.00;101160.03;5024328;28;19916;-60
2023/08/29 07:03:29;;;;;;;;;;;;;;;12.94;100.00;101166.31;5027274;28;19905;-60
2023/08/29 07:05:55;;;;;;;;;;;;;;;13.01;100.00;101160.34;5019715;28;19933;-60
2023/08/29 07:08:20;;;;;;;;;;;;;;;13.07;100.00;101162.19;5023433;28;19909;-60
2023/08/29 07:10:45;;;;;;;;;;;;;;;13.12;100.00;101164.03;5023926;28;19933;-60
2023/08/29 07:13:10;;;;;;;;;;;;;;;13.19;100.00;101173.78;5023847;28;19906;-60
2023/08/29 07:15:36;;;;;;;;;;;;;;;13.25;100.00;101175.59;5022300;28;19912;-60
2023/08/29 07:18:01;;;;;;;;;;;;;;;13.33;100.00;101171.38;5025892;28;19912;-60
2023/08/29 07:20:26;;;;;;;;;;;;;;;13.39;100.00;101176.75;5021349;28;20147;-60
2023/08/29 07:22:51;;;;;;;;;;;;;;;13.44;100.00;101179.47;5015538;28;19980;-60
2023/08/29 07:25:17;;;;;;;;;;;;;;;13.48;100.00;101175.16;5015179;28;20096;-60
2023/08/29 07:27:43;;;;;;;;;;;;;;;13.56;100.00;101177.03;5021282;28;20139;-60
2023/08/29 07:30:10;;;;;;;;;;;;;;;13.63;100.00;101180.66;5020911;28;19917;-60
2023/08/29 07:32:35;;;;;;;;;;;;;;;13.73;100.00;101177.31;5023522;28;19910;-60
2023/08/29 07:35:02;;;;;;;;;;;;;;;13.82;100.00;101180.97;5021748;28;20059;-60
2023/08/29 07:37:27;;;;;;;;;;;;;;;13.90;100.00;101181.94;5012543;28;19964;-60
2023/08/29 07:39:52;;;;;;;;;;;;;;;13.98;100.00;101185.56;5005044;28;19921;-60
2023/08/29 07:42:17;;;;;;;;;;;;;;;14.05;100.00;101182.19;5015016;28;19913;-60
2023/08/29 07:44:43;;;;;;;;;;;;;;;14.12;100.00;101183.16;5014273;28;19905;-61
2023/08/29 07:47:08;;;;;;;;;;;;;;;14.19;100.00;101184.09;5015690;28;19951;-61
2023/08/29 07:49:34;;;;;;;;;;;;;;;14.27;100.00;101187.72;5014358;28;19949;-61
2023/08/29 07:51:59;;;;;;;;;;;;;;;14.36;100.00;101185.22;5022545;28;20090;-61
2023/08/29 07:54:24;;;;;;;;;;;;;;;14.43;100.00;101189.69;5024321;28;19902;-60
2023/08/29 07:56:49;;;;;;;;;;;;;;;14.49;100.00;101185.41;5024674;28;19909;-61
2023/08/29 07:59:14;;;;;;;;;;;;;;;14.53;100.00;101184.56;5024220;28;19901;-60
2023/08/29 08:01:41;;;;;;;;;;;;;;;14.63;100.00;101177.72;5022337;28;19909;-61
2023/08/29 08:04:06;;;;;;;;;;;;;;;14.71;100.00;101174.31;5024267;28;19923;-61
2023/08/29 08:06:31;;;;;;;;;;;;;;;14.74;100.00;101177.00;5028824;28;19925;-61
2023/08/29 08:08:56;;;;;;;;;;;;;;;14.78;100.00;101175.28;5029991;28;19976;-61
2023/08/29 08:11:23;;;;;;;;;;;;;;;14.87;100.00;101177.13;5022882;28;19906;-61
2023/08/29 08:13:48;;;;;;;;;;;;;;;14.94;100.00;101185.06;5024548;28;19905;-61
2023/08/29 08:16:13;;;;;;;;;;;;;;;15.05;100.00;101186.97;5022701;28;19909;-61
2023/08/29 08:18:38;;;;;;;;;;;;;;;15.11;100.00;101184.41;5023372;28;19907;-61
2023/08/29 08:21:05;;;;;;;;;;;;;;;15.18;100.00;101180.06;5012200;28;20131;-61
2023/08/29 08:23:30;;;;;;;;;;;;;;;15.24;100.00;101182.78;5017730;28;19909;-61
2023/08/29 08:25:55;;;;;;;;;;;;;;;15.33;100.00;101182.00;5021378;28;19909;-61
2023/08/29 08:28:21;;;;;;;;;;;;;;;15.36;100.00;101177.63;5023942;28;19914;-61
2023/08/29 08:30:47;;;;;;;;;;;;;;;15.44;100.00;101191.72;5023274;28;20186;-62
2023/08/29 08:33:12;;;;;;;;;;;;;;;15.52;100.00;101180.41;5027869;28;19921;-62
2023/08/29 08:35:37;;;;;;;;;;;;;;;15.57;100.00;101184.84;5020159;28;19952;-62
2023/08/29 08:38:05;;;;;;;;;;;;;;;15.66;100.00;101186.66;5023420;28;19952;-62
2023/08/29 08:40:30;;;;;;;;;;;;;;;15.79;100.00;101187.66;5021275;28;19910;-62
2023/08/29 08:42:56;;;;;;;;;;;;;;;15.88;100.00;101187.72;5019459;28;19905;-62
2023/08/29 08:45:22;;;;;;;;;;;;;;;16.01;100.00;101183.44;5027359;28;19901;-62
2023/08/29 08:47:47;;;;;;;;;;;;;;;16.11;100.00;101182.63;5026555;28;20139;-62
2023/08/29 08:50:13;;;;;;;;;;;;;;;16.19;100.00;101181.78;5027945;28;19980;-62
2023/08/29 08:52:38;;;;;;;;;;;;;;;16.29;100.00;101178.34;5024301;28;19976;-62
2023/08/29 08:55:04;;;;;;;;;;;;;;;16.42;100.00;101180.16;5026320;28;19910;-62
2023/08/29 08:57:29;;;;;;;;;;;;;;;16.49;100.00;101179.31;5026584;28;20208;-62
2023/08/29 08:59:54;;;;;;;;;;;;;;;16.62;100.00;101177.59;5019966;28;19960;-62
2023/08/29 09:02:20;;;;;;;;;;;;;;;16.66;100.00;101170.63;5021275;28;20155;-62
2023/08/29 09:04:45;;;;;;;;;;;;;;;16.79;100.00;101172.41;5016078;28;19913;-62
2023/08/29 09:07:10;;;;;;;;;;;;;;;16.92;100.00;101169.88;5023734;28;19948;-62
2023/08/29 09:09:36;;;;;;;;;;;;;;;17.02;100.00;101166.38;5026920;28;19909;-62
2023/08/29 09:12:01;;;;;;;;;;;;;;;17.06;100.00;101176.03;5025098;28;20007;-62
2023/08/29 09:14:27;;;;;;;;;;;;;;;17.10;100.00;101169.88;5023096;28;19976;-62
2023/08/29 09:16:53;;;;;;;;;;;;;;;17.10;100.00;101175.16;5020146;28;19906;-62
2023/08/29 09:19:19;;;;;;;;;;;;;;;17.16;100.00;101171.66;5016762;28;19909;-63
2023/08/29 09:21:44;;;;;;;;;;;;;;;17.27;100.00;101176.94;5025944;28;19937;-62
2023/08/29 09:24:10;;;;;;;;;;;;;;;17.31;97.66;101178.72;5025178;28;20699;-62
2023/08/29 09:26:35;;;;;;;;;;;;;;;17.35;97.47;101181.34;5024165;28;19972;-62
2023/08/29 09:29:15;;;;;;;;;;;;;;;17.34;96.52;101182.22;5027014;28;19913;-62
2023/08/29 09:31:40;;;;;;;;;;;;;;;17.35;95.93;101185.72;5027011;28;19936;-62
2023/08/29 09:34:05;;;;;;;;;;;;;;;17.37;97.22;101179.56;5025274;28;20202;-62
2023/08/29 09:36:30;;;;;;;;;;;;;;;17.40;97.60;101183.97;5026920;28;19908;-63
2023/08/29 09:38:57;;;;;;;;;;;;;;;17.44;97.42;101183.09;5025400;28;19906;-63
2023/08/29 09:41:22;;;;;;;;;;;;;;;17.49;97.69;101188.38;5026958;28;19945;-62
2023/08/29 09:43:48;;;;;;;;;;;;;;;17.50;97.67;101182.25;5024883;28;19944;-62
2023/08/29 09:46:13;;;;;;;;;;;;;;;17.50;97.05;101176.97;5024060;28;20101;-62
2023/08/29 09:48:53;;;;;;;;;;;;;;;17.54;97.61;101176.97;5024334;28;19996;-63
2023/08/29 09:51:18;;;;;;;;;;;;;;;17.61;96.78;101171.69;5024809;28;19906;-63
2023/08/29 09:53:43;;;;;;;;;;;;;;;17.63;95.22;101168.19;5024077;28;19928;-63
2023/08/29 09:56:09;;;;;;;;;;;;;;;17.59;93.68;101169.06;5024573;28;19980;-63
2023/08/29 09:58:37;;;;;;;;;;;;;;;17.46;94.58;101160.25;5014238;28;19973;-63
2023/08/29 10:01:04;;;;;;;;;;;;;;;17.40;95.38;101162.91;5025827;28;19912;-63
2023/08/29 10:03:30;;;;;;;;;;;;;;;17.44;95.04;101167.31;5026061;28;19943;-63
2023/08/29 10:05:56;;;;;;;;;;;;;;;17.43;94.88;101167.31;5020817;28;19918;-63
2023/08/29 10:08:33;;;;;;;;;;;;;;;17.48;93.10;101163.78;5023796;28;20082;-63
2023/08/29 10:10:59;;;;;;;;;;;;;;;17.48;95.23;101163.78;5029058;28;19976;-63
2023/08/29 10:13:25;;;;;;;;;;;;;;;17.59;92.67;101166.41;5023892;28;20052;-63
2023/08/29 10:15:51;;;;;;;;;;;;;;;17.63;93.04;101165.53;5020590;28;20139;-63
2023/08/29 10:18:17;;;;;;;;;;;;;;;17.69;93.71;101167.28;5025433;28;20175;-63
2023/08/29 10:20:43;;;;;;;;;;;;;;;17.75;91.51;101156.75;5026029;28;19961;-63
2023/08/29 10:23:09;;;;;;;;;;;;;;;17.71;91.18;101154.97;5025309;28;19909;-63
2023/08/29 10:25:39;;;;;;;;;;;;;;;17.73;92.20;101155.88;5024884;28;20575;-63
2023/08/29 10:28:05;;;;;;;;;;;;;;;17.74;91.46;101152.34;5019442;28;19928;-63
2023/08/29 10:30:31;;;;;;;;;;;;;;;17.77;90.77;101157.63;5025466;28;19908;-63
2023/08/29 10:32:57;;;;;;;;;;;;;;;17.77;91.85;101152.38;5026041;28;19909;-63
2023/08/29 10:35:26;;;;;;;;;;;;;;;17.83;91.70;101151.44;5025963;28;19901;-63
2023/08/29 10:37:51;;;;;;;;;;;;;;;17.92;90.13;101147.97;5016976;28;19912;-63
2023/08/29 10:40:17;;;;;;;;;;;;;;;17.89;90.83;101149.69;5025784;28;19901;-63
2023/08/29 10:43:08;;;;;;;;;;;;;;;17.93;90.84;101152.34;5025715;28;19908;-63
2023/08/29 10:46:03;;;;;;;;;;;;;;;17.94;90.10;101143.56;5016614;28;20098;-63
2023/08/29 10:48:28;;;;;;;;;;;;;;;17.94;90.25;101147.06;5021409;28;19976;-64
2023/08/29 10:51:10;;;;;;;;;;;;;;;17.93;88.92;101136.53;5027171;28;19905;-64
2023/08/29 10:53:39;;;;;;;;;;;;;;;17.94;90.20;101136.53;5024793;28;20055;-63
2023/08/29 10:56:05;;;;;;;;;;;;;;;17.98;88.93;101132.16;5024519;28;19910;-64
2023/08/29 10:58:34;;;;;;;;;;;;;;;17.98;89.84;101135.66;5024698;28;20055;-64
2023/08/29 11:00:59;;;;;;;;;;;;;;;18.08;89.70;101128.59;5024405;28;19944;-64
2023/08/29 11:03:37;;;;;;;;;;;;;;;18.17;89.57;101120.63;5024905;28;19972;-64
2023/08/29 11:06:03;;;;;;;;;;;;;;;18.29;89.93;101121.50;5025095;28;19901;-64
2023/08/29 11:08:28;;;;;;;;;;;;;;;18.41;89.08;101119.69;5024997;28;20150;-64
2023/08/29 11:11:12;;;;;;;;;;;;;;;18.53;88.69;101131.94;5024155;28;19925;-64
2023/08/29 11:13:55;;;;;;;;;;;;;;;18.62;87.93;101127.50;5024597;28;19912;-64
2023/08/29 11:16:20;;;;;;;;;;;;;;;18.59;83.73;101126.63;5024779;28;19894;-64
2023/08/29 11:18:47;;;;;;;;;;;;;;;18.56;87.70;101124.00;5025286;28;20028;-64
2023/08/29 11:21:14;;;;;;;;;;;;;;;18.72;88.39;101113.38;5023872;28;20104;-64
2023/08/29 11:23:40;;;;;;;;;;;;;;;18.88;86.60;101115.03;5023193;28;20036;-64
2023/08/29 11:26:08;;;;;;;;;;;;;;;19.13;85.05;101111.38;5025039;28;19959;-64
2023/08/29 11:28:34;;;;;;;;;;;;;;;19.41;86.15;101106.75;5024784;28;20065;-64
2023/08/29 11:30:59;;;;;;;;;;;;;;;19.72;86.41;101102.03;5024490;28;19969;-64
2023/08/29 11:33:34;;;;;;;;;;;;;;;19.83;84.06;101101.97;5024780;28;19897;-64
2023/08/29 11:36:03;;;;;;;;;;;;;;;19.71;84.66;101096.75;5023793;28;19905;-65
2023/08/29 11:38:29;;;;;;;;;;;;;;;19.60;84.79;101103.03;5023182;28;19924;-64
2023/08/29 11:40:55;;;;;;;;;;;;;;;19.56;82.12;101096.00;5022896;28;19924;-64
2023/08/29 11:43:21;;;;;;;;;;;;;;;19.47;83.83;101098.75;5021478;28;19992;-65
2023/08/29 11:45:46;;;;;;;;;;;;;;;19.52;83.28;101098.72;5011190;28;19905;-64
2023/08/29 11:48:12;;;;;;;;;;;;;;;19.67;83.41;101092.38;5023736;28;19902;-64
2023/08/29 11:50:40;;;;;;;;;;;;;;;19.86;82.46;101094.00;5027135;28;20092;-64
2023/08/29 11:53:05;;;;;;;;;;;;;;;20.09;81.71;101088.44;5024543;28;19909;-65
2023/08/29 11:55:31;;;;;;;;;;;;;;;20.19;80.11;101089.22;5024530;28;19924;-65
2023/08/29 11:57:57;;;;;;;;;;;;;;;20.32;82.04;101082.00;5023577;28;19976;-65
2023/08/29 12:00:24;;;;;;;;;;;;;;;20.41;80.99;101083.63;5023083;28;19909;-65
2023/08/29 12:02:50;;;;;;;;;;;;;;;20.50;78.35;101080.84;5023989;28;19913;-65
2023/08/29 12:05:15;;;;;;;;;;;;;;;20.65;78.25;101083.28;5024489;28;20062;-65
2023/08/29 12:07:41;;;;;;;;;;;;;;;20.89;76.82;101077.69;5024339;28;19940;-65
2023/08/29 12:10:08;;;;;;;;;;;;;;;20.95;76.09;101078.44;5023057;28;19913;-65
2023/08/29 12:12:36;;;;;;;;;;;;;;;20.92;73.65;101069.69;5023928;28;19912;-65
2023/08/29 12:15:05;;;;;;;;;;;;;;;20.80;74.23;101076.91;5018563;28;19916;-65
2023/08/29 12:17:38;;;;;;;;;;;;;;;20.74;75.20;101078.78;5022710;28;20016;-67
2023/08/29 12:20:03;;;;;;;;;;;;;;;20.86;78.54;101067.16;5031915;28;19905;-65
2023/08/29 12:22:29;;;;;;;;;;;;;;;21.12;79.23;101062.28;5034048;28;20066;-66
2023/08/29 12:24:54;;;;;;;;;;;;;;;21.35;75.50;101074.28;5036125;28;20151;-65